createdAt,value
2019-02-02T00:01:42.981Z,49.47
2019-02-02T00:04:12.616Z,50.30
2019-02-02T00:06:42.412Z,47.23
2019-02-02T00:09:12.155Z,46.47
2019-02-02T00:11:41.845Z,55.07
2019-02-02T00:14:11.409Z,51.77
2019-02-02T00:16:41.247Z,51.47
2019-02-02T00:19:10.873Z,48.97
2019-02-02T00:21:40.769Z,46.27
2019-02-02T00:24:10.493Z,47.60
2019-02-02T00:26:40.392Z,45.40
2019-02-02T00:29:10.256Z,48.70
2019-02-02T00:31:39.956Z,50.03
2019-02-02T00:34:09.739Z,49.07
2019-02-02T00:36:39.268Z,53.10
2019-02-02T00:39:10.742Z,51.37
2019-02-02T00:41:40.537Z,45.30
2019-02-02T00:44:10.450Z,48.77
2019-02-02T00:46:40.004Z,51.00
2019-02-02T00:49:09.904Z,48.93
2019-02-02T00:51:39.525Z,50.17
2019-02-02T00:54:09.384Z,47.07
2019-02-02T00:56:39.102Z,47.90
2019-02-02T00:59:08.765Z,53.87
2019-02-02T01:01:38.540Z,48.60
2019-02-02T01:04:08.532Z,67.23
2019-02-02T01:06:38.336Z,53.27
2019-02-02T01:09:11.660Z,48.70
2019-02-02T01:11:41.753Z,51.47
2019-02-02T01:14:11.711Z,52.67
2019-02-02T01:16:41.501Z,45.23
2019-02-02T01:19:11.316Z,45.77
2019-02-02T01:21:40.937Z,51.97
2019-02-02T01:24:10.746Z,49.83
2019-02-02T01:26:40.317Z,48.20
2019-02-02T01:29:10.503Z,47.63
2019-02-02T01:31:40.500Z,52.53
2019-02-02T01:34:10.596Z,44.30
2019-02-02T01:36:40.140Z,47.83
2019-02-02T01:39:09.979Z,45.13
2019-02-02T01:41:39.630Z,46.37
2019-02-02T01:44:09.476Z,49.33
2019-02-02T01:46:39.110Z,49.73
2019-02-02T01:49:08.760Z,47.83
2019-02-02T01:51:38.322Z,49.03
2019-02-02T01:54:08.250Z,48.90
2019-02-02T01:56:37.742Z,50.93
2019-02-02T01:59:07.518Z,48.23
2019-02-02T02:01:37.110Z,48.67
2019-02-02T02:04:06.964Z,46.17
2019-02-02T02:06:36.634Z,49.00
2019-02-02T02:09:07.934Z,51.20
2019-02-02T02:11:37.795Z,51.20
2019-02-02T02:14:07.787Z,44.17
2019-02-02T02:16:37.518Z,52.33
2019-02-02T02:19:07.181Z,47.10
2019-02-02T02:21:36.755Z,48.47
2019-02-02T02:24:06.612Z,47.90
2019-02-02T02:26:36.274Z,48.43
2019-02-02T02:29:06.410Z,49.37
2019-02-02T02:31:36.212Z,45.93
2019-02-02T02:34:06.043Z,45.60
2019-02-02T02:36:35.776Z,46.20
2019-02-02T02:39:08.190Z,43.63
2019-02-02T02:41:37.974Z,51.40
2019-02-02T02:44:07.672Z,46.03
2019-02-02T02:46:37.358Z,47.73
2019-02-02T02:49:07.040Z,50.83
2019-02-02T02:51:36.928Z,48.17
2019-02-02T02:54:07.138Z,49.33
2019-02-02T02:56:36.723Z,48.37
2019-02-02T02:59:06.753Z,46.03
2019-02-02T03:01:36.321Z,50.33
2019-02-02T03:04:06.140Z,44.53
2019-02-02T03:06:35.678Z,46.67
2019-02-02T03:09:09.124Z,41.87
2019-02-02T03:11:39.057Z,47.10
2019-02-02T03:14:08.734Z,43.17
2019-02-02T03:16:38.222Z,46.90
2019-02-02T03:19:08.045Z,40.90
2019-02-02T03:21:37.607Z,45.20
2019-02-02T03:24:07.495Z,46.47
2019-02-02T03:26:37.054Z,43.47
2019-02-02T03:29:06.570Z,44.70
2019-02-02T03:31:36.131Z,42.13
2019-02-02T03:34:05.912Z,43.27
2019-02-02T03:36:35.819Z,42.23
2019-02-02T03:39:10.183Z,46.17
2019-02-02T03:41:39.889Z,44.30
2019-02-02T03:44:09.597Z,44.43
2019-02-02T03:46:39.304Z,46.37
2019-02-02T03:49:08.895Z,46.10
2019-02-02T03:51:38.662Z,45.80
2019-02-02T03:54:09.321Z,43.93
2019-02-02T03:56:39.044Z,42.77
2019-02-02T03:59:08.740Z,46.43
2019-02-02T04:01:38.704Z,46.30
2019-02-02T04:04:08.686Z,46.93
2019-02-02T04:06:38.277Z,47.80
2019-02-02T04:09:08.354Z,43.57
2019-02-02T04:11:37.959Z,46.03
2019-02-02T04:14:07.830Z,42.10
2019-02-02T04:16:37.623Z,41.77
2019-02-02T04:19:07.375Z,39.30
2019-02-02T04:21:37.106Z,42.83
2019-02-02T04:24:06.654Z,46.53
2019-02-02T04:26:36.880Z,42.33
2019-02-02T04:29:17.275Z,41.67
2019-02-02T04:31:38.089Z,40.87
2019-02-02T04:34:07.742Z,45.47
2019-02-02T04:36:37.687Z,44.33
2019-02-02T04:39:08.497Z,40.63
2019-02-02T04:41:38.168Z,43.60
2019-02-02T04:44:07.943Z,46.37
2019-02-02T04:46:37.543Z,45.77
2019-02-02T04:49:07.239Z,44.07
2019-02-02T04:51:36.875Z,45.83
2019-02-02T04:54:06.681Z,47.00
2019-02-02T04:56:36.217Z,44.50
2019-02-02T04:59:05.918Z,48.77
2019-02-02T05:01:35.677Z,45.93
2019-02-02T05:04:05.726Z,45.60
2019-02-02T05:06:35.282Z,42.37
2019-02-02T05:09:08.208Z,42.70
2019-02-02T05:11:37.772Z,43.47
2019-02-02T05:14:07.693Z,45.30
2019-02-02T05:16:37.288Z,44.80
2019-02-02T05:19:07.098Z,44.60
2019-02-02T05:21:36.676Z,45.57
2019-02-02T05:24:06.592Z,48.83
2019-02-02T05:26:36.277Z,47.70
2019-02-02T05:29:05.947Z,48.57
2019-02-02T05:31:35.761Z,44.10
2019-02-02T05:34:05.470Z,47.53
2019-02-02T05:36:35.193Z,46.93
2019-02-02T05:39:07.005Z,50.80
2019-02-02T05:41:36.767Z,51.77
2019-02-02T05:44:06.535Z,47.77
2019-02-02T05:46:36.196Z,50.27
2019-02-02T05:49:06.095Z,51.10
2019-02-02T05:51:35.684Z,50.70
2019-02-02T05:54:05.314Z,48.37
2019-02-02T05:56:34.936Z,52.10
2019-02-02T05:59:04.541Z,49.03
2019-02-02T06:01:34.215Z,45.83
2019-02-02T06:04:03.759Z,50.90
2019-02-02T06:06:33.724Z,51.63
2019-02-02T06:09:04.488Z,50.80
2019-02-02T06:11:34.415Z,47.57
2019-02-02T06:14:04.179Z,51.50
2019-02-02T06:16:33.841Z,53.00
2019-02-02T06:19:03.521Z,49.90
2019-02-02T06:21:33.119Z,52.13
2019-02-02T06:24:02.658Z,54.63
2019-02-02T06:26:32.659Z,53.83
2019-02-02T06:29:02.373Z,53.27
2019-02-02T06:31:32.679Z,55.70
2019-02-02T06:34:02.205Z,54.20
2019-02-02T06:36:31.740Z,55.30
2019-02-02T06:39:01.649Z,54.83
2019-02-02T06:41:31.916Z,60.90
2019-02-02T06:44:01.658Z,57.50
2019-02-02T06:46:42.969Z,59.63
2019-02-02T06:49:02.633Z,56.27
2019-02-02T06:51:32.601Z,59.47
2019-02-02T06:54:02.554Z,54.40
2019-02-02T06:56:32.085Z,58.30
2019-02-02T06:59:01.923Z,54.33
2019-02-02T07:01:32.188Z,56.50
2019-02-02T07:04:01.836Z,58.50
2019-02-02T07:06:31.730Z,58.43
2019-02-02T07:09:01.370Z,59.07
2019-02-02T07:11:31.006Z,58.13
2019-02-02T07:14:00.608Z,57.60
2019-02-02T07:16:30.364Z,57.20
2019-02-02T07:19:00.038Z,64.60
2019-02-02T07:21:29.829Z,62.10
2019-02-02T07:23:59.513Z,58.20
2019-02-02T07:26:29.188Z,61.43
2019-02-02T07:28:59.001Z,66.37
2019-02-02T07:31:28.951Z,63.87
2019-02-02T07:33:58.877Z,63.40
2019-02-02T07:36:28.543Z,60.53
2019-02-02T07:38:58.656Z,68.57
2019-02-02T07:41:28.381Z,65.03
2019-02-02T07:43:58.052Z,68.00
2019-02-02T07:46:27.787Z,66.03
2019-02-02T07:48:57.396Z,68.33
2019-02-02T07:51:27.247Z,64.33
2019-02-02T07:53:56.916Z,62.57
2019-02-02T07:56:26.659Z,66.57
2019-02-02T07:58:56.241Z,64.13
2019-02-02T08:01:26.084Z,66.93
2019-02-02T08:03:55.762Z,65.20
2019-02-02T08:06:25.500Z,69.13
2019-02-02T08:08:55.108Z,67.57
2019-02-02T08:11:24.841Z,73.23
2019-02-02T08:13:54.611Z,69.40
2019-02-02T08:16:24.773Z,72.67
2019-02-02T08:18:54.467Z,68.50
2019-02-02T08:21:24.136Z,70.87
2019-02-02T08:23:53.864Z,71.60
2019-02-02T08:26:23.654Z,68.93
2019-02-02T08:28:53.298Z,67.50
2019-02-02T08:31:23.076Z,72.20
2019-02-02T08:33:52.876Z,73.07
2019-02-02T08:36:22.621Z,69.57
2019-02-02T08:38:52.260Z,68.60
2019-02-02T08:41:21.977Z,72.07
2019-02-02T08:43:51.598Z,66.53
2019-02-02T08:46:21.371Z,72.10
2019-02-02T08:48:50.999Z,72.20
2019-02-02T08:51:20.746Z,70.30
2019-02-02T08:53:50.474Z,75.77
2019-02-02T08:56:20.181Z,71.60
2019-02-02T08:58:49.927Z,69.90
2019-02-02T09:01:19.547Z,71.80
2019-02-02T09:03:49.271Z,72.13
2019-02-02T09:06:19.134Z,70.30
2019-02-02T09:08:49.232Z,69.83
2019-02-02T09:11:18.909Z,69.77
2019-02-02T09:13:48.532Z,75.53
2019-02-02T09:16:18.367Z,67.77
2019-02-02T09:18:51.052Z,70.47
2019-02-02T09:21:19.252Z,74.07
2019-02-02T09:23:49.016Z,69.17
2019-02-02T09:26:18.565Z,70.70
2019-02-02T09:28:48.971Z,69.17
2019-02-02T09:31:18.590Z,68.03
2019-02-02T09:33:48.154Z,68.47
2019-02-02T09:36:17.774Z,68.30
2019-02-02T09:38:47.618Z,69.20
2019-02-02T09:41:17.536Z,71.50
2019-02-02T09:43:47.606Z,66.80
2019-02-02T09:46:17.164Z,74.90
2019-02-02T09:48:46.976Z,74.87
2019-02-02T09:51:16.518Z,72.03
2019-02-02T09:53:46.463Z,74.03
2019-02-02T09:56:16.000Z,71.57
2019-02-02T09:58:45.802Z,73.43
2019-02-02T10:01:27.171Z,68.80
2019-02-02T10:03:47.185Z,70.70
2019-02-02T10:06:16.850Z,72.73
2019-02-02T10:08:46.758Z,74.60
2019-02-02T10:11:16.401Z,72.47
2019-02-02T10:13:46.267Z,70.70
2019-02-02T10:16:15.766Z,68.10
2019-02-02T10:18:45.802Z,68.30
2019-02-02T10:21:15.229Z,71.83
2019-02-02T10:23:44.830Z,73.83
2019-02-02T10:26:14.575Z,74.67
2019-02-02T10:28:44.390Z,72.50
2019-02-02T10:31:13.928Z,76.17
2019-02-02T10:33:43.769Z,73.40
2019-02-02T10:36:13.307Z,72.63
2019-02-02T10:38:43.132Z,74.03
2019-02-02T10:41:12.776Z,68.77
2019-02-02T10:43:42.519Z,77.27
2019-02-02T10:46:12.319Z,73.63
2019-02-02T10:48:41.999Z,76.53
2019-02-02T10:51:11.501Z,74.37
2019-02-02T10:53:41.434Z,78.07
2019-02-02T10:56:11.038Z,79.37
2019-02-02T10:58:40.617Z,76.63
2019-02-02T11:01:10.390Z,72.13
2019-02-02T11:03:40.298Z,72.60
2019-02-02T11:06:10.061Z,76.20
2019-02-02T11:08:40.189Z,72.87
2019-02-02T11:11:10.039Z,75.53
2019-02-02T11:13:40.223Z,74.50
2019-02-02T11:16:10.370Z,76.73
2019-02-02T11:18:39.846Z,82.70
2019-02-02T11:21:09.739Z,76.80
2019-02-02T11:23:39.363Z,75.40
2019-02-02T11:26:09.225Z,80.73
2019-02-02T11:28:38.817Z,83.23
2019-02-02T11:31:12.897Z,74.00
2019-02-02T11:33:44.357Z,70.67
2019-02-02T11:36:14.020Z,75.90
2019-02-02T11:38:43.859Z,80.10
2019-02-02T11:41:13.691Z,79.83
2019-02-02T11:43:43.396Z,81.40
2019-02-02T11:46:13.170Z,82.07
2019-02-02T11:48:42.866Z,77.93
2019-02-02T11:51:12.526Z,76.70
2019-02-02T11:53:42.276Z,80.97
2019-02-02T11:56:11.760Z,81.60
2019-02-02T11:58:41.679Z,84.50
2019-02-02T12:01:11.410Z,76.13
2019-02-02T12:03:41.279Z,79.83
2019-02-02T12:06:10.939Z,76.50
2019-02-02T12:08:40.534Z,78.33
2019-02-02T12:11:10.057Z,73.83
2019-02-02T12:13:39.774Z,74.73
2019-02-02T12:16:09.453Z,81.63
2019-02-02T12:18:46.621Z,78.60
2019-02-02T12:21:16.587Z,75.87
2019-02-02T12:23:50.930Z,80.70
2019-02-02T12:26:24.763Z,74.80
2019-02-02T12:29:00.810Z,78.40
2019-02-02T12:31:36.514Z,79.63
2019-02-02T12:34:09.053Z,74.50
2019-02-02T12:36:41.353Z,79.27
2019-02-02T12:39:13.035Z,81.63
2019-02-02T12:41:45.557Z,80.07
2019-02-02T12:44:15.455Z,81.43
2019-02-02T12:46:45.160Z,83.10
2019-02-02T12:49:15.197Z,85.43
2019-02-02T12:51:45.009Z,79.63
2019-02-02T12:54:14.672Z,81.73
2019-02-02T12:56:44.575Z,79.50
2019-02-02T12:59:14.241Z,88.33
2019-02-02T13:01:43.936Z,85.47
2019-02-02T13:04:13.500Z,83.77
2019-02-02T13:06:43.255Z,84.10
2019-02-02T13:09:13.049Z,87.30
2019-02-02T13:11:42.652Z,93.10
2019-02-02T13:14:12.328Z,88.20
2019-02-02T13:16:42.045Z,86.90
2019-02-02T13:19:13.923Z,91.13
2019-02-02T13:21:42.932Z,93.73
2019-02-02T13:24:13.240Z,92.37
2019-02-02T13:26:43.096Z,95.37
2019-02-02T13:29:12.683Z,91.53
2019-02-02T13:31:42.351Z,92.13
2019-02-02T13:34:11.900Z,89.23
2019-02-02T13:36:41.995Z,95.13
2019-02-02T13:39:11.656Z,97.40
2019-02-02T13:41:41.397Z,100.47
2019-02-02T13:44:10.945Z,102.93
2019-02-02T13:46:40.615Z,108.23
2019-02-02T13:49:10.265Z,101.73
2019-02-02T13:51:40.180Z,100.93
2019-02-02T13:54:09.799Z,91.73
2019-02-02T13:56:39.487Z,105.23
2019-02-02T13:59:09.717Z,102.17
2019-02-02T14:01:42.082Z,104.13
2019-02-02T14:04:10.575Z,105.17
2019-02-02T14:06:40.545Z,107.17
2019-02-02T14:09:10.538Z,99.33
2019-02-02T14:11:40.163Z,113.00
2019-02-02T14:14:18.162Z,110.03
2019-02-02T14:16:51.233Z,117.03
2019-02-02T14:19:21.260Z,112.53
2019-02-02T14:21:51.241Z,104.57
2019-02-02T14:24:20.964Z,112.17
2019-02-02T14:26:50.843Z,111.93
2019-02-02T14:29:20.831Z,117.10
2019-02-02T14:31:50.794Z,107.53
2019-02-02T14:34:20.483Z,111.40
2019-02-02T14:36:50.399Z,127.07
2019-02-02T14:39:20.003Z,115.27
2019-02-02T14:41:49.737Z,119.57
2019-02-02T14:44:19.512Z,114.63
2019-02-02T14:46:49.230Z,117.87
2019-02-02T14:49:20.482Z,125.87
2019-02-02T14:51:50.040Z,125.20
2019-02-02T14:54:20.034Z,122.00
2019-02-02T14:56:49.878Z,121.00
2019-02-02T14:59:19.647Z,131.43
2019-02-02T15:01:49.417Z,134.57
2019-02-02T15:04:19.216Z,134.93
2019-02-02T15:06:49.045Z,129.63
2019-02-02T15:09:18.671Z,128.83
2019-02-02T15:11:48.688Z,127.53
2019-02-02T15:14:18.442Z,130.93
2019-02-02T15:16:48.133Z,138.60
2019-02-02T15:19:18.073Z,143.30
2019-02-02T15:21:47.789Z,137.47
2019-02-02T15:24:17.579Z,138.47
2019-02-02T15:26:47.402Z,137.03
2019-02-02T15:29:16.999Z,138.17
2019-02-02T15:31:46.820Z,141.40
2019-02-02T15:34:16.532Z,143.33
2019-02-02T15:36:46.282Z,149.37
2019-02-02T15:39:15.968Z,138.93
2019-02-02T15:41:52.616Z,149.37
2019-02-02T15:44:17.043Z,140.37
2019-02-02T15:46:49.007Z,138.90
2019-02-02T15:49:18.156Z,145.80
2019-02-02T15:51:48.029Z,142.00
2019-02-02T15:54:17.846Z,144.53
2019-02-02T15:56:47.557Z,145.27
2019-02-02T15:59:17.350Z,134.80
2019-02-02T16:01:47.343Z,152.03
2019-02-02T16:04:17.086Z,147.83
2019-02-02T16:06:47.089Z,140.77
2019-02-02T16:09:16.811Z,141.27
2019-02-02T16:11:46.519Z,139.10
2019-02-02T16:14:16.290Z,137.60
2019-02-02T16:16:46.061Z,136.90
2019-02-02T16:19:15.950Z,145.47
2019-02-02T16:21:45.955Z,130.07
2019-02-02T16:24:16.081Z,133.53
2019-02-02T16:26:48.592Z,135.33
2019-02-02T16:29:17.082Z,131.23
2019-02-02T16:31:46.757Z,142.67
2019-02-02T16:34:16.885Z,141.93
2019-02-02T16:36:46.516Z,138.10
2019-02-02T16:39:16.217Z,127.07
2019-02-02T16:41:45.898Z,137.60
2019-02-02T16:44:15.916Z,127.63
2019-02-02T16:46:45.539Z,137.23
2019-02-02T16:49:15.369Z,132.80
2019-02-02T16:51:45.248Z,127.83
2019-02-02T16:54:15.182Z,132.60
2019-02-02T16:56:45.034Z,129.70
2019-02-02T16:59:15.329Z,127.13
2019-02-02T17:01:45.114Z,130.27
2019-02-02T17:04:16.268Z,128.37
2019-02-02T17:06:46.093Z,121.30
2019-02-02T17:09:16.440Z,123.03
2019-02-02T17:11:46.432Z,125.73
2019-02-02T17:14:18.063Z,130.77
2019-02-02T17:16:47.706Z,128.77
2019-02-02T17:19:17.585Z,134.07
2019-02-02T17:21:47.245Z,126.73
2019-02-02T17:24:16.909Z,124.43
2019-02-02T17:26:46.597Z,125.67
2019-02-02T17:29:16.379Z,128.37
2019-02-02T17:31:46.320Z,126.33
2019-02-02T17:34:26.603Z,122.87
2019-02-02T17:36:47.457Z,120.40
2019-02-02T17:39:17.170Z,126.80
2019-02-02T17:41:46.840Z,122.90
2019-02-02T17:44:16.617Z,124.27
2019-02-02T17:46:46.429Z,117.10
2019-02-02T17:49:16.445Z,130.27
2019-02-02T17:51:46.158Z,130.30
2019-02-02T17:54:15.969Z,119.10
2019-02-02T17:56:45.657Z,123.30
2019-02-02T17:59:15.425Z,123.07
2019-02-02T18:01:45.375Z,117.53
2019-02-02T18:04:15.095Z,130.13
2019-02-02T18:06:44.870Z,122.40
2019-02-02T18:09:14.689Z,123.77
2019-02-02T18:11:44.345Z,123.10
2019-02-02T18:14:14.368Z,118.97
2019-02-02T18:16:44.230Z,129.53
2019-02-02T18:19:13.873Z,119.43
2019-02-02T18:21:43.637Z,124.63
2019-02-02T18:24:13.386Z,127.23
2019-02-02T18:26:43.155Z,131.97
2019-02-02T18:29:12.880Z,123.27
2019-02-02T18:31:42.766Z,131.00
2019-02-02T18:34:12.609Z,127.23
2019-02-02T18:36:42.138Z,131.07
2019-02-02T18:39:11.732Z,141.10
2019-02-02T18:41:41.597Z,143.27
2019-02-02T18:44:11.162Z,134.80
2019-02-02T18:46:41.329Z,138.63
2019-02-02T18:49:10.842Z,149.93
2019-02-02T18:51:40.482Z,139.60
2019-02-02T18:54:10.234Z,147.43
2019-02-02T18:56:40.099Z,144.97
2019-02-02T18:59:11.242Z,142.07
2019-02-02T19:01:40.971Z,149.73
2019-02-02T19:04:30.096Z,141.17
2019-02-02T19:06:59.809Z,144.20
2019-02-02T19:09:29.480Z,151.23
2019-02-02T19:11:59.022Z,135.33
2019-02-02T19:14:29.092Z,140.07
2019-02-02T19:17:01.016Z,140.90
2019-02-02T19:19:30.198Z,150.87
2019-02-02T19:21:59.998Z,156.40
2019-02-02T19:24:29.558Z,154.47
2019-02-02T19:26:59.447Z,149.23
2019-02-02T19:29:29.859Z,162.30
2019-02-02T19:31:59.439Z,158.50
2019-02-02T19:34:29.128Z,174.03
2019-02-02T19:36:58.800Z,168.97
2019-02-02T19:39:28.910Z,164.67
2019-02-02T19:41:58.756Z,155.43
2019-02-02T19:44:28.535Z,176.27
2019-02-02T19:46:58.237Z,174.70
2019-02-02T19:49:28.409Z,165.57
2019-02-02T19:51:58.110Z,166.77
2019-02-02T19:54:28.361Z,155.07
2019-02-02T19:56:58.190Z,165.60
2019-02-02T19:59:28.101Z,169.80
2019-02-02T20:01:57.955Z,171.17
2019-02-02T20:04:28.038Z,169.50
2019-02-02T20:06:57.845Z,160.93
2019-02-02T20:09:27.561Z,180.90
2019-02-02T20:11:57.278Z,167.50
2019-02-02T20:14:26.833Z,171.30
2019-02-02T20:16:56.563Z,173.07
2019-02-02T20:19:26.117Z,179.47
2019-02-02T20:21:55.963Z,175.47
2019-02-02T20:24:25.635Z,183.87
2019-02-02T20:26:55.913Z,191.20
2019-02-02T20:29:25.847Z,172.27
2019-02-02T20:31:55.764Z,174.63
2019-02-02T20:34:25.433Z,180.53
2019-02-02T20:36:55.318Z,177.33
2019-02-02T20:39:25.046Z,176.97
2019-02-02T20:41:54.746Z,165.87
2019-02-02T20:44:24.336Z,175.37
2019-02-02T20:46:54.048Z,168.27
2019-02-02T20:49:23.662Z,160.87
2019-02-02T20:51:53.412Z,169.77
2019-02-02T20:54:23.046Z,173.50
2019-02-02T20:56:52.862Z,158.47
2019-02-02T20:59:22.520Z,166.50
2019-02-02T21:01:52.310Z,145.97
2019-02-02T21:04:22.024Z,158.80
2019-02-02T21:06:51.771Z,162.17
2019-02-02T21:09:27.176Z,159.60
2019-02-02T21:11:57.376Z,169.47
2019-02-02T21:14:27.226Z,152.97
2019-02-02T21:16:56.844Z,164.87
2019-02-02T21:19:27.041Z,157.57
2019-02-02T21:21:56.871Z,170.30
2019-02-02T21:24:27.235Z,162.13
2019-02-02T21:26:57.262Z,155.60
2019-02-02T21:29:26.862Z,158.70
2019-02-02T21:31:57.011Z,167.53
2019-02-02T21:34:26.887Z,165.33
2019-02-02T21:36:57.221Z,160.33
2019-02-02T21:39:26.822Z,153.73
2019-02-02T21:41:56.417Z,154.97
2019-02-02T21:44:26.561Z,147.80
2019-02-02T21:46:56.207Z,154.43
2019-02-02T21:49:26.026Z,156.37
2019-02-02T21:51:55.744Z,151.40
2019-02-02T21:54:25.970Z,153.47
2019-02-02T21:56:56.006Z,150.83
2019-02-02T21:59:25.587Z,138.03
2019-02-02T22:01:55.470Z,159.30
2019-02-02T22:04:25.178Z,145.43
2019-02-02T22:06:54.785Z,149.90
2019-02-02T22:09:24.648Z,145.73
2019-02-02T22:11:54.181Z,123.37
2019-02-02T22:14:24.283Z,132.77
2019-02-02T22:16:54.021Z,125.67
2019-02-02T22:19:23.723Z,123.50
2019-02-02T22:21:53.246Z,126.30
2019-02-02T22:24:23.083Z,125.60
2019-02-02T22:26:52.765Z,133.13
2019-02-02T22:29:22.431Z,134.23
2019-02-02T22:31:52.089Z,141.53
2019-02-02T22:34:21.697Z,144.73
2019-02-02T22:36:51.642Z,150.50
2019-02-02T22:39:21.567Z,157.60
2019-02-02T22:41:51.378Z,155.63
2019-02-02T22:44:21.123Z,157.13
2019-02-02T22:46:50.822Z,158.20
2019-02-02T22:49:20.811Z,151.30
2019-02-02T22:51:50.605Z,146.77
2019-02-02T22:54:20.398Z,154.73
2019-02-02T22:56:50.021Z,148.87
2019-02-02T22:59:19.675Z,145.27
2019-02-02T23:01:50.141Z,158.23
2019-02-02T23:04:24.601Z,147.40
2019-02-02T23:06:58.847Z,150.57
2019-02-02T23:09:56.658Z,147.40
2019-02-02T23:12:33.901Z,152.67
2019-02-02T23:15:17.059Z,146.00
2019-02-02T23:17:47.152Z,154.43
2019-02-02T23:20:16.880Z,159.13
2019-02-02T23:22:47.159Z,155.20
2019-02-02T23:25:16.780Z,142.40
2019-02-02T23:27:46.736Z,143.33
2019-02-02T23:30:17.825Z,141.73
2019-02-02T23:32:47.527Z,145.77
2019-02-02T23:35:17.534Z,126.73
2019-02-02T23:37:47.664Z,139.47
2019-02-02T23:40:17.266Z,134.67
2019-02-02T23:42:47.700Z,151.53
2019-02-02T23:45:17.463Z,136.53
2019-02-02T23:47:47.318Z,146.03
2019-02-02T23:50:16.790Z,145.43
2019-02-02T23:52:46.586Z,133.73
2019-02-02T23:55:16.335Z,136.70
2019-02-02T23:57:46.363Z,143.80
